GEO weather

Cheddi Jagan International Airport
Georgetown, Demerara-Mahaica, Guyana

Public forecast

Using degrees Celsius for public forecast. Weather courtesy of forecast.io.

Current aviation weather report (METAR) for Cheddi Jagan International Airport

Retrieved 2020/01/29 07:00 UTC (40 minutes ago):

SYCJ 290700Z VRB02KT 9999 FEW014 24/24 Q//// NOSIG

Aviation forecast (TAF) for Cheddi Jagan International Airport

Retrieved 2020/01/29 06:21 UTC (1 hour ago):

TAF SYCJ 290400Z 2906/3006 05006KT 9999 FEW016 BECMG 2911/2913 08010KT 9999 BKN020 SCT100 BECMG 2921/2923 06006KT 9999 SCT016